»·PEaware :: N374ED KPDX-KSEA

N374ED :: KPDX-KSEA

FLIGHT INFORMATION

Flight Status: Arrived
Operator: Privately registered:
United States
More flights under this callsign
Pilot: Eric D. (9648)
Aircraft: BEECH AIRCRAFT BARON
(BE58)
More flights by this aircraft type
Origin: KPDX Portland Intl
United States
Destination: KSEA Seattle-Tacoma Intl
United States
More flights between these airports :: More routes between these airports
Route: BTG V495 SEA
File this flight plan on PilotEdge
Remarks:
Altitude:
(Current/Filed)
9,000ft
Speed:
(Current/Filed)
190kts
Departed: 11-Jul-20 03:26 PM
Arrived: 11-Jul-20 04:11 PM
Distance/Time
Traveled:
112nm/0:45
Distance/Time
To Go:
Arrived

Flight Plot

Page will automatically refresh every two minutes.


Map Options




Map Legend


Flown Route
Filed Route
Departure Airport
Arrival Airport
Navaid (VOR, NDB)
Fix

Horizontal Profiles

Position Reports

Time Latitude Longitude Heading Altitude Ground
Speed
11-Jul-20 15:09 45.587118 -122.582677 208 26ft 0kts
11-Jul-20 15:10 45.587118 -122.582677 208 26ft 0kts
11-Jul-20 15:11 45.587118 -122.582677 208 26ft 0kts
11-Jul-20 15:12 45.587118 -122.582677 208 26ft 0kts
11-Jul-20 15:13 45.587118 -122.582677 208 26ft 0kts
11-Jul-20 15:14 45.587118 -122.582677 208 26ft 0kts
11-Jul-20 15:15 45.587118 -122.582677 208 26ft 0kts
11-Jul-20 15:16 45.587118 -122.582677 208 26ft 0kts
11-Jul-20 15:17 45.587118 -122.582677 208 26ft 0kts
11-Jul-20 15:18 45.587118 -122.582677 208 26ft 0kts
11-Jul-20 15:19 45.587118 -122.582677 208 26ft 0kts
11-Jul-20 15:20 45.587033 -122.582562 99 26ft 0kts
11-Jul-20 15:21 45.586757 -122.580533 118 26ft 12kts
11-Jul-20 15:22 45.586292 -122.576982 119 27ft 11kts
11-Jul-20 15:23 45.586268 -122.576418 32 28ft 0kts
11-Jul-20 15:24 45.587110 -122.575999 327 29ft 8kts
11-Jul-20 15:25 45.595294 -122.597707 299 629ft 116kts
11-Jul-20 15:26 45.610285 -122.636827 297 2428ft 114kts
11-Jul-20 15:27 45.627336 -122.674107 329 4008ft 115kts
11-Jul-20 15:28 45.659499 -122.658016 20 5374ft 131kts
11-Jul-20 15:29 45.692869 -122.633002 20 6525ft 142kts
11-Jul-20 15:30 45.728893 -122.605814 20 7545ft 149kts
11-Jul-20 15:31 45.767225 -122.588910 358 8557ft 142kts
11-Jul-20 15:32 45.808848 -122.581850 358 9020ft 171kts
11-Jul-20 15:33 45.859747 -122.573404 359 9016ft 191kts
11-Jul-20 15:34 45.910687 -122.565052 359 9016ft 194kts
11-Jul-20 15:38 46.131514 -122.528944 359 9056ft 203kts
11-Jul-20 15:39 46.188168 -122.519624 359 9056ft 203kts
11-Jul-20 15:40 46.244475 -122.510349 359 9056ft 203kts
11-Jul-20 15:41 46.300715 -122.501066 359 9056ft 203kts
11-Jul-20 15:42 46.356943 -122.491766 359 9056ft 203kts
11-Jul-20 15:43 46.413387 -122.482424 0 9055ft 204kts
11-Jul-20 15:44 46.470184 -122.473113 1 9047ft 207kts
11-Jul-20 15:45 46.528239 -122.463576 3 9039ft 211kts
11-Jul-20 15:46 46.586918 -122.453809 6 9033ft 214kts
11-Jul-20 15:47 46.646338 -122.443658 6 9026ft 215kts
11-Jul-20 15:48 46.702867 -122.433670 358 9027ft 196kts
11-Jul-20 15:49 46.756724 -122.418889 4 9030ft 197kts
11-Jul-20 15:50 46.810533 -122.402794 4 9029ft 197kts
11-Jul-20 15:52 46.864402 -122.386299 4 9047ft 197kts
11-Jul-20 15:53 46.918365 -122.369468 4 8999ft 200kts
11-Jul-20 15:54 46.973304 -122.353742 1 9065ft 201kts
11-Jul-20 15:55 47.028566 -122.363986 344 9025ft 204kts
11-Jul-20 15:56 47.083897 -122.376444 345 8917ft 211kts
11-Jul-20 15:57 47.141656 -122.390640 344 8223ft 208kts
11-Jul-20 15:58 47.198752 -122.404309 344 7496ft 205kts
11-Jul-20 15:59 47.256155 -122.409996 354 6729ft 207kts
11-Jul-20 16:00 47.313874 -122.410055 354 5952ft 206kts
11-Jul-20 16:01 47.371454 -122.411179 355 5148ft 208kts
11-Jul-20 16:02 47.428556 -122.412240 352 4274ft 202kts
11-Jul-20 16:03 47.483936 -122.414753 355 3309ft 197kts
11-Jul-20 16:04 47.534958 -122.417791 356 3001ft 161kts
11-Jul-20 16:05 47.572746 -122.404140 71 2472ft 132kts
11-Jul-20 16:06 47.564958 -122.355508 115 2422ft 115kts
11-Jul-20 16:06 47.550003 -122.327983 151 2145ft 101kts
11-Jul-20 16:08 47.520393 -122.316847 185 1558ft 97kts
11-Jul-20 16:09 47.493696 -122.317615 183 1155ft 96kts
11-Jul-20 16:09 47.471154 -122.317717 181 777ft 97kts
11-Jul-20 16:11 47.446421 -122.318006 176 436ft 37kts
11-Jul-20 16:11 47.441931 -122.316516 148 436ft 13kts
11-Jul-20 16:12 47.438863 -122.314821 219 436ft 11kts
11-Jul-20 16:14 47.438415 -122.315484 3 436ft 0kts

Navigation Log

Ident Type
Flight plan parsing failed, navigation log unavailable